createdAt,value
2022-12-26T00:00:56.552Z,20.20
2022-12-26T00:05:15.313Z,13.50
2022-12-26T00:09:22.507Z,17.70
2022-12-26T00:13:39.195Z,15.90
2022-12-26T00:17:48.139Z,18.90
2022-12-26T00:21:57.649Z,19.70
2022-12-26T00:26:07.351Z,21.40
2022-12-26T00:30:15.066Z,12.20
2022-12-26T00:34:21.735Z,18.10
2022-12-26T00:38:28.398Z,20.90
2022-12-26T00:42:35.215Z,19.60
2022-12-26T00:46:42.372Z,22.50
2022-12-26T00:50:49.187Z,21.10
2022-12-26T00:54:55.847Z,20.30
2022-12-26T00:59:02.558Z,20.70
2022-12-26T01:03:11.983Z,18.70
2022-12-26T01:07:18.959Z,19.50
2022-12-26T01:11:39.533Z,18.10
2022-12-26T01:15:51.694Z,20.50
2022-12-26T01:19:59.008Z,21.30
2022-12-26T01:24:06.876Z,19.60
2022-12-26T01:28:13.705Z,19.50
2022-12-26T01:32:20.772Z,23.40
2022-12-26T01:36:27.579Z,19.10
2022-12-26T01:40:34.359Z,17.50
2022-12-26T01:45:10.941Z,14.10
2022-12-26T01:49:22.744Z,20.90
2022-12-26T01:53:40.892Z,23.90
2022-12-26T01:57:53.888Z,18.90
2022-12-26T02:02:02.050Z,22.80
2022-12-26T02:06:12.309Z,21.80
2022-12-26T02:10:25.135Z,18.90
2022-12-26T02:14:33.623Z,18.20
2022-12-26T02:18:41.140Z,17.80
2022-12-26T02:23:11.929Z,17.80
2022-12-26T02:27:37.836Z,24.80
2022-12-26T02:31:49.535Z,18.20
2022-12-26T02:36:11.698Z,21.50
2022-12-26T02:40:39.050Z,16.70
2022-12-26T02:45:10.141Z,20.60
2022-12-26T02:49:22.593Z,23.00
2022-12-26T02:53:58.699Z,25.80
2022-12-26T02:58:33.943Z,23.20
2022-12-26T03:03:03.523Z,19.70
2022-12-26T03:07:34.665Z,19.50
2022-12-26T03:12:02.817Z,25.40
2022-12-26T03:16:29.618Z,19.30
2022-12-26T03:20:39.509Z,15.90
2022-12-26T03:25:00.224Z,20.80
2022-12-26T03:29:25.845Z,19.20
2022-12-26T03:33:55.077Z,19.80
2022-12-26T03:38:07.534Z,19.40
2022-12-26T03:42:39.818Z,20.90
2022-12-26T03:47:20.731Z,15.40
2022-12-26T03:51:52.103Z,17.10
2022-12-26T03:56:24.075Z,15.90
2022-12-26T04:01:05.209Z,21.70
2022-12-26T04:05:34.169Z,16.70
2022-12-26T04:10:07.076Z,18.30
2022-12-26T04:14:37.274Z,11.90
2022-12-26T04:19:11.952Z,17.90
2022-12-26T04:23:58.045Z,20.80
2022-12-26T04:28:24.598Z,17.00
2022-12-26T04:33:05.645Z,13.90
2022-12-26T04:37:38.904Z,17.30
2022-12-26T04:42:05.223Z,16.00
2022-12-26T04:46:12.295Z,14.10
2022-12-26T04:50:19.391Z,15.10
2022-12-26T04:54:26.349Z,14.20
2022-12-26T04:58:33.284Z,14.30
2022-12-26T05:02:57.572Z,7.00
2022-12-26T05:07:26.819Z,15.00
2022-12-26T05:11:35.551Z,14.60
2022-12-26T05:15:56.351Z,10.70
2022-12-26T05:20:21.244Z,12.10
2022-12-26T05:24:48.972Z,7.40
2022-12-26T05:29:00.914Z,17.50
2022-12-26T05:33:25.526Z,16.40
2022-12-26T05:41:38.278Z,12.40
2022-12-26T05:45:44.928Z,12.50
2022-12-26T05:49:51.747Z,7.70
2022-12-26T05:53:58.791Z,13.00
2022-12-26T05:58:05.739Z,13.30
2022-12-26T06:02:12.485Z,11.90
2022-12-26T06:06:20.409Z,10.80
2022-12-26T06:10:29.822Z,9.30
2022-12-26T06:14:36.560Z,10.20
2022-12-26T06:18:43.429Z,11.10
2022-12-26T06:22:50.231Z,13.40
2022-12-26T06:26:57.456Z,15.00
2022-12-26T06:31:11.193Z,11.00
2022-12-26T06:35:18.211Z,10.90
2022-12-26T06:39:25.317Z,8.70
2022-12-26T06:43:31.988Z,8.40
2022-12-26T06:47:39.107Z,8.10
2022-12-26T06:51:46.209Z,10.20
2022-12-26T06:55:53.773Z,6.70
2022-12-26T07:00:00.590Z,9.10
2022-12-26T07:04:08.122Z,10.40
2022-12-26T07:08:14.939Z,8.00
2022-12-26T07:12:22.100Z,11.20
2022-12-26T07:16:29.582Z,10.70
2022-12-26T07:20:36.530Z,9.50
2022-12-26T07:24:43.314Z,9.00
2022-12-26T07:28:50.895Z,10.40
2022-12-26T07:32:57.689Z,7.00
2022-12-26T07:37:04.679Z,9.80
2022-12-26T07:41:29.020Z,8.20
2022-12-26T07:45:40.346Z,7.00
2022-12-26T07:49:50.228Z,7.80
2022-12-26T07:53:57.002Z,12.40
2022-12-26T07:58:03.732Z,9.40
2022-12-26T08:02:12.256Z,12.30
2022-12-26T08:06:19.901Z,9.10
2022-12-26T08:10:26.830Z,8.80
2022-12-26T08:14:33.830Z,9.40
2022-12-26T08:18:41.580Z,11.00
2022-12-26T08:22:48.303Z,12.40
2022-12-26T08:26:55.081Z,10.80
2022-12-26T08:31:01.831Z,8.60
2022-12-26T08:35:10.070Z,10.20
2022-12-26T08:39:16.851Z,8.50
2022-12-26T08:44:24.423Z,11.40
2022-12-26T08:47:51.116Z,13.20
2022-12-26T08:51:57.909Z,10.60
2022-12-26T08:56:05.828Z,11.70
2022-12-26T09:00:14.942Z,9.50
2022-12-26T09:04:22.026Z,9.70
2022-12-26T09:08:29.847Z,10.00
2022-12-26T09:12:36.568Z,14.00
2022-12-26T09:16:50.435Z,12.40
2022-12-26T09:21:00.230Z,14.40
2022-12-26T09:25:08.043Z,12.80
2022-12-26T09:29:15.478Z,8.80
2022-12-26T09:33:22.474Z,11.80
2022-12-26T09:37:29.205Z,12.90
2022-12-26T09:42:00.983Z,14.70
2022-12-26T09:46:16.766Z,13.30
2022-12-26T09:50:31.155Z,15.10
2022-12-26T09:54:43.962Z,12.60
2022-12-26T09:58:53.454Z,13.20
2022-12-26T10:03:01.619Z,12.40
2022-12-26T10:07:23.258Z,12.30
2022-12-26T10:11:44.667Z,14.40
2022-12-26T10:15:54.782Z,14.50
2022-12-26T10:20:16.234Z,10.90
2022-12-26T10:24:26.581Z,13.90
2022-12-26T10:28:40.309Z,10.60
2022-12-26T10:32:52.294Z,13.40
2022-12-26T10:37:08.751Z,14.30
2022-12-26T10:41:49.153Z,10.70
2022-12-26T10:46:11.240Z,12.50
2022-12-26T10:50:45.673Z,10.10
2022-12-26T10:55:28.144Z,16.40
2022-12-26T10:59:43.739Z,14.10
2022-12-26T11:04:01.307Z,11.40
2022-12-26T11:08:37.859Z,15.50
2022-12-26T11:13:00.952Z,14.80
2022-12-26T11:17:28.832Z,13.20
2022-12-26T11:21:36.183Z,14.90
2022-12-26T11:25:51.270Z,13.80
2022-12-26T11:30:17.237Z,18.00
2022-12-26T11:34:32.612Z,14.10
2022-12-26T11:38:54.886Z,15.20
2022-12-26T11:43:04.512Z,10.80
2022-12-26T11:47:27.108Z,12.50
2022-12-26T11:51:42.748Z,12.70
2022-12-26T11:56:05.345Z,11.10
2022-12-26T12:00:36.740Z,9.70
2022-12-26T12:04:55.914Z,13.60
2022-12-26T12:09:19.940Z,13.00
2022-12-26T12:18:19.418Z,11.80
2022-12-26T12:22:54.644Z,10.00
2022-12-26T12:27:17.137Z,11.00
2022-12-26T12:31:50.961Z,11.20
2022-12-26T12:36:21.955Z,11.80
2022-12-26T12:40:51.117Z,10.80
2022-12-26T12:45:27.895Z,11.30
2022-12-26T12:50:05.138Z,11.60
2022-12-26T12:54:44.519Z,11.10
2022-12-26T12:59:04.191Z,10.60
2022-12-26T13:03:37.099Z,13.10
2022-12-26T13:17:14.885Z,12.80
2022-12-26T13:21:26.620Z,11.70
2022-12-26T13:25:54.243Z,11.80
2022-12-26T13:30:00.979Z,10.80
2022-12-26T13:34:12.329Z,10.40
2022-12-26T13:38:23.311Z,12.70
2022-12-26T13:43:05.496Z,12.70
2022-12-26T13:47:36.988Z,10.90
2022-12-26T13:51:57.874Z,9.70
2022-12-26T13:56:12.301Z,10.50
2022-12-26T14:00:23.607Z,9.80
2022-12-26T14:04:43.992Z,10.00
2022-12-26T14:09:12.020Z,8.40
2022-12-26T14:13:43.123Z,8.40
2022-12-26T14:18:00.600Z,11.80
2022-12-26T14:22:16.573Z,11.50
2022-12-26T14:26:34.980Z,11.50
2022-12-26T14:30:58.691Z,13.50
2022-12-26T14:35:16.542Z,12.00
2022-12-26T14:39:33.513Z,15.00
2022-12-26T14:43:42.079Z,21.70
2022-12-26T14:47:50.772Z,15.80
2022-12-26T14:52:17.788Z,14.50
2022-12-26T14:56:37.673Z,8.50
2022-12-26T15:00:45.919Z,11.50
2022-12-26T15:05:09.494Z,12.50
2022-12-26T15:09:35.008Z,12.20
2022-12-26T15:14:23.081Z,14.50
2022-12-26T15:19:07.868Z,12.20
2022-12-26T15:23:46.378Z,17.80
2022-12-26T15:28:23.059Z,13.70
2022-12-26T15:32:36.916Z,14.00
2022-12-26T15:36:50.634Z,17.80
2022-12-26T15:41:11.183Z,14.60
2022-12-26T15:45:32.490Z,12.80
2022-12-26T15:50:03.666Z,9.50
2022-12-26T15:54:27.940Z,9.50
2022-12-26T15:58:57.892Z,10.30
2022-12-26T16:03:20.137Z,10.40
2022-12-26T16:07:38.680Z,10.20
2022-12-26T16:11:54.127Z,11.10
2022-12-26T16:16:01.998Z,12.00
2022-12-26T16:20:42.387Z,11.30
2022-12-26T16:24:51.644Z,8.80
2022-12-26T16:29:00.824Z,9.20
2022-12-26T16:33:08.389Z,9.70
2022-12-26T16:37:20.096Z,9.80
2022-12-26T16:41:28.488Z,10.70
2022-12-26T16:45:38.517Z,9.60
2022-12-26T16:49:47.125Z,10.00
2022-12-26T16:53:53.865Z,10.00
2022-12-26T16:58:03.398Z,8.70
2022-12-26T17:02:18.807Z,13.20
2022-12-26T17:06:30.981Z,9.70
2022-12-26T17:10:39.539Z,10.50
2022-12-26T17:14:50.221Z,10.20
2022-12-26T17:18:57.982Z,10.40
2022-12-26T17:23:43.870Z,10.80
2022-12-26T17:28:12.480Z,8.80
2022-12-26T17:32:28.644Z,8.70
2022-12-26T17:37:17.289Z,8.20
2022-12-26T17:41:06.632Z,12.80
2022-12-26T17:45:18.985Z,8.10
2022-12-26T17:49:25.623Z,7.60
2022-12-26T17:53:34.110Z,9.70
2022-12-26T17:57:40.803Z,10.00
2022-12-26T18:01:47.572Z,9.40
2022-12-26T18:05:56.585Z,5.90
2022-12-26T18:10:04.745Z,10.40
2022-12-26T18:14:15.719Z,10.90
2022-12-26T18:18:28.151Z,10.10
2022-12-26T18:22:34.905Z,9.80
2022-12-26T18:26:44.765Z,8.30
2022-12-26T18:30:51.481Z,9.10
2022-12-26T18:34:59.261Z,8.20
2022-12-26T18:39:06.694Z,12.10
2022-12-26T18:43:14.111Z,9.80
2022-12-26T18:47:22.414Z,13.10
2022-12-26T18:51:29.151Z,9.70
2022-12-26T18:55:35.893Z,12.20
2022-12-26T18:59:42.564Z,11.70
2022-12-26T19:03:49.556Z,9.70
2022-12-26T19:07:56.339Z,10.00
2022-12-26T19:12:03.074Z,10.70
2022-12-26T19:16:10.311Z,9.80
2022-12-26T19:20:22.284Z,11.90
2022-12-26T19:24:29.204Z,10.50
2022-12-26T19:28:35.878Z,11.30
2022-12-26T19:32:43.677Z,10.50
2022-12-26T19:36:50.746Z,10.40
2022-12-26T19:41:03.741Z,13.00
2022-12-26T19:45:12.919Z,9.70
2022-12-26T19:49:19.617Z,9.60
2022-12-26T19:53:26.281Z,8.20
2022-12-26T19:57:33.234Z,9.70
2022-12-26T20:01:41.055Z,10.80
2022-12-26T20:05:47.867Z,8.00
2022-12-26T20:09:54.832Z,10.40
2022-12-26T20:14:02.609Z,8.20
2022-12-26T20:18:14.585Z,7.50
2022-12-26T20:22:21.888Z,8.80
2022-12-26T20:26:29.583Z,9.80
2022-12-26T20:30:36.468Z,13.50
2022-12-26T20:34:43.443Z,12.10
2022-12-26T20:38:53.015Z,9.30
2022-12-26T20:42:59.721Z,9.10
2022-12-26T20:47:06.461Z,9.50
2022-12-26T20:51:16.495Z,10.20
2022-12-26T20:55:23.309Z,9.80
2022-12-26T20:59:30.310Z,12.50
2022-12-26T21:03:37.787Z,8.60
2022-12-26T21:07:45.034Z,9.60
2022-12-26T21:11:51.812Z,8.40
2022-12-26T21:15:58.668Z,9.40
2022-12-26T21:20:06.123Z,12.20
2022-12-26T21:24:16.743Z,9.80
2022-12-26T21:28:23.584Z,10.20
2022-12-26T21:32:30.361Z,11.00
2022-12-26T21:36:39.097Z,12.10
2022-12-26T21:40:46.390Z,10.60
2022-12-26T21:44:53.292Z,10.40
2022-12-26T21:49:01.114Z,9.20
2022-12-26T21:53:08.198Z,8.30
2022-12-26T21:57:15.047Z,8.90
2022-12-26T22:01:23.580Z,9.30
2022-12-26T22:05:31.977Z,8.80
2022-12-26T22:09:38.802Z,10.60
2022-12-26T22:13:47.303Z,9.50
2022-12-26T22:17:54.085Z,7.80
2022-12-26T22:22:00.918Z,9.00
2022-12-26T22:26:08.771Z,8.60
2022-12-26T22:30:16.388Z,10.60
2022-12-26T22:34:23.259Z,10.30
2022-12-26T22:38:32.848Z,9.20
2022-12-26T22:42:39.594Z,9.10
2022-12-26T22:46:46.433Z,8.80
2022-12-26T22:50:55.118Z,11.20
2022-12-26T22:55:01.868Z,10.30
2022-12-26T22:59:08.606Z,7.60
2022-12-26T23:03:16.096Z,8.40
2022-12-26T23:07:24.366Z,8.00
2022-12-26T23:11:35.707Z,9.10
2022-12-26T23:15:55.080Z,8.20
2022-12-26T23:20:19.310Z,9.20
2022-12-26T23:24:28.156Z,10.90
2022-12-26T23:28:52.651Z,9.50
2022-12-26T23:32:59.564Z,7.40
2022-12-26T23:37:06.734Z,6.50
2022-12-26T23:41:13.566Z,10.00
2022-12-26T23:45:20.441Z,8.90
2022-12-26T23:49:27.259Z,10.10
2022-12-26T23:53:33.950Z,9.00
2022-12-26T23:57:40.764Z,10.60
